INFORMACIÓN METAR y TAF
METAR FOR GCFV
ADDS - METARS form results

(2105 UTC 17 January 2020)
Data provider http://aviationweather.gov/metar/data/
 
METAR text: GCFV 172100Z 01009KT CAVOK 17/12 Q1029
Conditions at: GCFV (FUERTEVENTURA AR, ES) observed 2100 UTC 17 January 2020
Temperature: 17.0°C (63°F)
Dewpoint: 12.0°C (54°F) [RH = 72%]
Pressure (altimeter): 30.38 inches Hg (1029.0 mb)
Winds: from the N (10 degrees) at 10 MPH (9 knots; 4.6 m/s)
Visibility: 6 or more miles (10+ km)
Ceiling: ceiling and visibility are OK
Clouds: unknown
Weather: no significant weather observed at this time

METAR text: GCFV 172030Z 36007KT CAVOK 17/12 Q1029
Conditions at: GCFV (FUERTEVENTURA AR, ES) observed 2030 UTC 17 January 2020
Temperature: 17.0°C (63°F)
Dewpoint: 12.0°C (54°F) [RH = 72%]
Pressure (altimeter): 30.38 inches Hg (1029.0 mb)
Winds: from the N (360 degrees) at 8 MPH (7 knots; 3.6 m/s)
Visibility: 6 or more miles (10+ km)
Ceiling: ceiling and visibility are OK
Clouds: unknown
Weather: no significant weather observed at this time

Forecast for: GCFV (FUERTEVENTURA AR, ES)
Text: TAF GCFV 172000Z 1721/1821 02010KT CAVOK TX20/1815Z TN14/1806Z
Forecast period: 2100 UTC 17 January 2020 to 0200 UTC 18 January 2020
Forecast type: FROM: standard forecast or significant change
Winds: from the NNE (20 degrees) at 12 MPH (10 knots; 5.1 m/s)
Visibility: 6 or more miles 10+ km)
Ceiling: unknown
Clouds: missing
Weather: no significant weather forecast for this period
Text: BECMG 1802/1804 09009KT
Forecast period: 0200 to 2100 UTC 18 January 2020
Forecast type: BECOMING: Conditions expected to become as follows by 0400 UTC 18 January 2020
Winds: from the E (90 degrees) at 10 MPH (9 knots; 4.6 m/s)
Visibility: 6 or more miles 10+ km)
Ceiling: unknown
Clouds: missing
Weather: no significant weather forecast for this period

MAPA DE AEROPUERTO

INFORMACIÓN DE PISTA
Pista 01 Longitud 7874 ft Ancho 148 ft
Elevación 37 ft Umbral desplazado 0 ft Rumbo de pista 2
Pista 19 Longitud 7874 ft Ancho 148 ft
Elevación 75 ft Umbral desplazado 0 ft Rumbo de pista 182

FRECUANCIAS DEL AEROPUERTO
Tipo APP Nombre CANARIAS A Frecuencia 129.3 MHZ
Tipo ATIS Nombre ATIS Frecuencia 118.65 MHZ
Tipo GND Nombre GND Frecuencia 121.7 MHZ
Tipo TWR Nombre TWR Frecuencia 118.5 MHZ

RADIO AYUDAS DEL AEROPUERTO
Tipo VOR-DME Nombre Fuerteventura Frecuencia 114100 KHZ